Latest Weather Observations for Christmas Island

IDW60801

Issued at 2:33 pm WST Saturday 10 December 2022 (issued every 10 minutes, with the page automatically refreshed every 10 minutes)

About weather observations | Map of weather stations | Latest weather observations for WA | Other Formats
Station Details ID: 200790 Name: CHRISTMAS ISLAND AERO Lat: -10.45 Lon: 105.69 Height: 261.0 m
Data from the previous 72 hours. | See also: Recent months at Christmas Island
Date/Time
WST
Temp
°C
App
Temp
°C
Dew
Point
°C
Rel
Hum
%
Delta-T
°C
Wind Press
QNH
hPa
Press
MSL
hPa
Rain since
9am
mm
Dir  Spd
km/h
Gust
km/h
Spd
kts
Gust
kts
10/02:30pm 25.1 27.7 24.6 97 0.3 NE 19 28 10 15 1011.0 1009.4 0.0
10/02:00pm 25.8 28.3 24.8 94 0.7 NNE 20 30 11 16 1011.1 1009.5 0.0
10/01:38pm 26.6 29.3 25.0 91 1.1 NNE 20 26 11 14 1011.3 1009.7 0.0
10/01:30pm 26.9 29.5 24.9 89 1.4 NNE 20 28 11 15 1011.3 1009.7 0.0
10/01:08pm 26.7 29.0 24.5 88 1.5 N 20 30 11 16 1011.5 1010.0 0.0
10/01:00pm 26.3 28.3 24.0 87 1.6 N 20 28 11 15 1011.5 1010.0 0.0
10/12:30pm 26.3 30.7 25.6 96 0.5 N 13 19 7 10 1011.6 1010.1 0.0
10/12:00pm 26.6 30.9 26.6 100 0.0 N 17 24 9 13 1012.0 1010.4 0.0
10/11:30am 24.5 26.5 24.5 100 0.0 N 22 30 12 16 1012.1 1010.5 0.0
10/11:00am 25.6 28.8 25.6 100 0.0 ENE 19 32 10 17 1012.2 1010.6 0.0
10/10:30am 25.2 29.3 25.2 100 0.0 NE 13 22 7 12 1012.3 1010.7 0.0
10/10:00am 24.7 28.9 24.7 100 0.0 NE 11 17 6 9 1012.2 1010.6 26.2
10/09:58am 25.0 29.4 25.0 100 0.0 NNE 11 19 6 10 1012.2 1010.6 26.2
10/09:30am 24.7 28.5 24.7 100 0.0 N 13 19 7 10 1011.9 1010.3 26.0
10/09:15am 24.5 28.2 24.5 100 0.0 N 13 19 7 10 1011.7 1010.2 26.0
10/09:04am 24.2 27.7 24.2 100 0.0 N 13 20 7 11 1011.6 1010.1 26.0
10/09:00am 24.2 27.7 24.2 100 0.0 N 13 19 7 10 1011.5 1010.0 26.0
10/08:30am 24.3 27.1 24.3 100 0.0 N 17 24 9 13 1011.4 1009.8 25.2
10/08:00am 24.3 26.7 24.3 100 0.0 N 19 24 10 13 1011.2 1009.6 25.2
10/07:46am 24.1 27.5 24.1 100 0.0 N 13 19 7 10 1011.1 1009.5 25.2
10/07:30am 23.9 26.8 23.9 100 0.0 N 15 19 8 10 1010.9 1009.3 25.2
10/07:14am 23.9 27.2 23.9 100 0.0 N 13 19 7 10 1010.5 1008.9 25.2
10/07:00am 23.9 26.8 23.9 100 0.0 NNE 15 19 8 10 1010.3 1008.7 25.2
10/06:30am 24.1 26.8 24.1 100 0.0 NE 17 22 9 12 1009.8 1008.2 25.2
10/06:00am 24.2 26.9 24.2 100 0.0 NNE 17 26 9 14 1009.4 1007.8 25.2
10/05:30am 24.1 27.2 24.1 100 0.0 NNE 15 24 8 13 1009.4 1007.8 25.2
10/05:00am 24.1 26.4 24.1 100 0.0 NNE 19 28 10 15 1009.6 1008.0 25.2
10/04:30am 24.0 26.6 24.0 100 0.0 NNE 17 24 9 13 1009.4 1007.8 25.2
10/04:00am 23.9 26.8 23.9 100 0.0 N 15 22 8 12 1009.3 1007.7 25.2
10/03:30am 23.9 27.2 23.9 100 0.0 N 13 19 7 10 1009.2 1007.6 25.2
10/03:14am 23.9 26.8 23.9 100 0.0 NNW 15 19 8 10 1009.3 1007.7 25.2
10/03:00am 23.8 27.4 23.8 100 0.0 N 11 20 6 11 1009.5 1007.9 25.2
10/02:30am 24.0 26.6 24.0 100 0.0 N 17 26 9 14 1009.9 1008.3 25.2
10/02:00am 24.0 26.6 24.0 100 0.0 NNE 17 24 9 13 1010.0 1008.4 25.2
10/01:30am 23.8 26.7 23.8 100 0.0 NNE 15 22 8 12 1010.3 1008.7 25.2
10/01:12am 23.8 27.1 23.8 100 0.0 NNE 13 20 7 11 1010.2 1008.6 25.2
10/01:00am 23.7 26.5 23.7 100 0.0 NNE 15 20 8 11 1010.3 1008.7 25.2
10/12:30am 23.4 26.4 23.4 100 0.0 N 13 19 7 10 1010.6 1009.0 25.2
10/12:00am 23.4 26.1 23.4 100 0.0 N 15 19 8 10 1010.8 1009.2 25.2
 
Date/Time
WST
Temp
°C
App
Temp
°C
Dew
Point
°C
Rel
Hum
%
Delta-T
°C
Wind Press
QNH
hPa
Press
MSL
hPa
Rain since
9am
mm
Dir  Spd
km/h
Gust
km/h
Spd
kts
Gust
kts
09/11:59pm 23.4 26.1 23.4 100 0.0 N 15 19 8 10 1010.8 1009.2 25.2
09/11:30pm 23.5 26.2 23.5 100 0.0 NNE 15 20 8 11 1011.1 1009.5 25.2
09/11:00pm 23.4 25.7 23.4 100 0.0 NNE 17 24 9 13 1010.9 1009.3 25.2
09/10:51pm 23.4 26.1 23.4 100 0.0 NNE 15 20 8 11 1011.0 1009.4 25.2
09/10:30pm 23.3 25.9 23.3 100 0.0 NNE 15 20 8 11 1010.9 1009.3 25.2
09/10:00pm 23.2 25.7 23.2 100 0.0 NNE 15 20 8 11 1011.0 1009.4 25.2
09/09:45pm 23.2 26.1 23.2 100 0.0 N 13 22 7 12 1010.9 1009.3 25.2
09/09:39pm 23.2 26.5 23.2 100 0.0 NNE 11 17 6 9 1010.8 1009.2 25.2
09/09:30pm 23.2 25.7 23.2 100 0.0 NNE 15 20 8 11 1010.8 1009.2 25.2
09/09:00pm 23.1 26.0 23.1 100 0.0 NE 13 19 7 10 1010.8 1009.2 24.8
09/08:50pm 23.0 25.8 23.0 100 0.0 NNE 13 20 7 11 1010.7 1009.1 24.6
09/08:46pm 23.1 26.0 23.1 100 0.0 NNE 13 22 7 12 1010.6 1009.0 24.6
09/08:30pm 22.7 25.0 22.7 100 0.0 N 15 20 8 11 1010.2 1008.6 24.6
09/08:00pm 22.6 25.2 22.6 100 0.0 NNE 13 20 7 11 1010.1 1008.5 24.6
09/07:48pm 22.7 25.3 22.7 100 0.0 N 13 17 7 9 1010.0 1008.4 24.2
09/07:30pm 22.8 26.3 22.8 100 0.0 NNE 9 13 5 7 1010.0 1008.4 23.0
09/07:29pm 22.7 26.1 22.7 100 0.0 NNE 9 13 5 7 1010.0 1008.4 23.0
09/07:21pm 22.6 25.9 22.6 100 0.0 NNE 9 13 5 7 1010.0 1008.4 22.4
09/07:11pm 22.5 25.8 22.5 100 0.0 N 9 11 5 6 1009.8 1008.2 22.0
09/07:00pm 22.5 25.8 22.5 100 0.0 N 9 13 5 7 1009.7 1008.1 21.4
09/06:56pm 22.6 25.9 22.6 100 0.0 N 9 13 5 7 1009.7 1008.1 21.2
09/06:55pm 22.6 25.9 22.6 100 0.0 N 9 13 5 7 1009.7 1008.1 21.2
09/06:52pm 22.5 25.8 22.5 100 0.0 NNE 9 11 5 6 1009.8 1008.2 21.2
09/06:30pm 22.5 25.4 22.5 100 0.0 NNE 11 19 6 10 1009.7 1008.1 19.6
09/06:17pm 22.6 25.9 22.6 100 0.0 NNE 9 13 5 7 1009.5 1007.9 17.2
09/06:13pm 22.6 25.9 22.6 100 0.0 NNE 9 13 5 7 1009.5 1007.9 16.6
09/06:00pm 22.5 25.4 22.5 100 0.0 N 11 15 6 8 1009.4 1007.8 15.8
09/05:48pm 22.7 26.1 22.7 100 0.0 NNW 9 13 5 7 1009.3 1007.7 15.2
09/05:42pm 22.6 25.9 22.6 100 0.0 NNW 9 13 5 7 1009.3 1007.7 15.0
09/05:40pm 22.7 26.1 22.7 100 0.0 NNW 9 11 5 6 1009.3 1007.7 15.0
09/05:30pm 22.6 25.6 22.6 100 0.0 NNW 11 15 6 8 1009.2 1007.6 14.6
09/05:00pm 23.3 26.7 23.3 100 0.0 ENE 11 15 6 8 1008.9 1007.3 6.6
09/04:30pm 23.7 26.9 23.7 100 0.0 ENE 13 24 7 13 1008.9 1007.3 6.2
09/04:25pm 23.6 27.1 23.6 100 0.0 ENE 11 19 6 10 1009.0 1007.4 6.2
09/04:17pm 23.6 27.1 23.6 100 0.0 NE 11 17 6 9 1009.0 1007.4 6.0
09/04:11pm 23.7 26.9 23.7 100 0.0 NE 13 19 7 10 1009.0 1007.4 6.0
09/04:10pm 23.4 26.4 23.4 100 0.0 NE 13 19 7 10 1009.0 1007.4 6.0
09/04:00pm 24.0 26.6 24.0 100 0.0 NNE 17 28 9 15 1009.1 1007.5 5.8
09/03:49pm 23.9 25.9 23.9 100 0.0 NNE 20 30 11 16 1009.2 1007.6 2.6
09/03:47pm 23.9 26.1 23.9 100 0.0 NNE 19 30 10 16 1009.2 1007.6 1.8
09/03:30pm 25.1 28.0 25.1 100 0.0 E 19 33 10 18 1009.1 1007.5 0.8
09/03:28pm 25.2 28.4 25.0 99 0.1 ENE 17 33 9 18 1009.1 1007.5 0.8
09/03:00pm 26.3 29.9 25.6 96 0.5 NE 17 22 9 12 1009.4 1007.8 0.8
09/02:30pm 26.4 29.6 25.5 95 0.6 ENE 19 26 10 14 1009.7 1008.1 0.6
09/02:00pm 26.8 30.2 25.9 95 0.6 E 19 22 10 12 1010.1 1008.5 0.6
09/01:30pm 26.4 30.2 25.9 97 0.4 E 17 22 9 12 1010.0 1008.4 0.4
09/01:00pm 26.5 29.9 25.8 96 0.5 E 19 26 10 14 1010.5 1008.9 0.4
09/12:30pm 26.6 30.3 26.3 98 0.2 E 19 24 10 13 1010.8 1009.2 0.4
09/12:00pm 26.4 30.0 26.2 99 0.1 E 19 24 10 13 1010.9 1009.3 0.2
09/11:30am 25.7 29.4 25.7 100 0.0 E 17 22 9 12 1010.9 1009.3 0.2
09/11:00am 26.1 30.0 26.1 100 0.0 ESE 17 24 9 13 1011.1 1009.5 0.0
09/10:30am 25.6 30.0 25.6 100 0.0 ESE 13 19 7 10 1011.3 1009.7 0.0
09/10:00am 25.4 29.6 25.4 100 0.0 ESE 13 19 7 10 1011.4 1009.8 3.8
09/09:30am 25.3 29.1 25.3 100 0.0 ESE 15 20 8 11 1011.2 1009.6 3.6
09/09:00am 24.6 28.0 24.6 100 0.0 ESE 15 20 8 11 1011.2 1009.6 3.6
09/08:30am 24.6 28.7 24.6 100 0.0 ESE 11 15 6 8 1011.1 1009.5 3.4
09/08:03am 23.9 28.0 23.9 100 0.0 ESE 9 13 5 7 1010.6 1009.0 3.4
09/08:00am 23.9 28.0 23.9 100 0.0 ESE 9 13 5 7 1010.5 1008.9 3.4
09/07:30am 23.2 26.5 23.2 100 0.0 SE 11 15 6 8 1010.2 1008.6 3.4
09/07:16am 23.2 26.5 23.2 100 0.0 ESE 11 13 6 7 1009.9 1008.3 3.4
09/07:13am 23.2 26.5 23.2 100 0.0 ESE 11 13 6 7 1009.9 1008.3 3.4
09/07:00am 23.1 26.7 23.1 100 0.0 SE 9 13 5 7 1009.7 1008.1 3.2
09/06:30am 22.6 26.3 22.6 100 0.0 SE 7 13 4 7 1009.4 1007.8 3.2
09/06:19am 22.7 25.7 22.7 100 0.0 ESE 11 15 6 8 1009.3 1007.7 3.2
09/06:00am 22.7 26.1 22.7 100 0.0 E 9 11 5 6 1009.1 1007.5 3.2
09/05:58am 22.8 26.6 22.8 100 0.0 E 7 11 4 6 1009.2 1007.6 3.2
09/05:30am 22.5 25.8 22.5 100 0.0 E 9 13 5 7 1009.6 1008.0 3.2
09/05:00am 22.9 26.0 22.9 100 0.0 ENE 11 20 6 11 1009.8 1008.2 3.0
09/04:30am 22.9 26.4 22.9 100 0.0 SE 9 17 5 9 1009.8 1008.2 3.0
09/04:11am 23.1 27.1 23.1 100 0.0 ESE 7 15 4 8 1009.7 1008.1 3.0
09/04:09am 23.1 26.7 23.1 100 0.0 ESE 9 15 5 8 1009.7 1008.1 3.0
09/04:00am 22.9 26.0 22.9 100 0.0 ESE 11 19 6 10 1009.7 1008.1 3.0
09/03:30am 23.1 25.6 23.1 100 0.0 SE 15 24 8 13 1009.9 1008.3 2.8
09/03:13am 23.2 26.9 23.2 100 0.0 SSE 9 15 5 8 1009.7 1008.1 2.8
09/03:12am 23.2 26.9 23.2 100 0.0 SSE 9 15 5 8 1009.7 1008.1 2.8
09/03:00am 23.1 26.7 23.1 100 0.0 SE 9 15 5 8 1010.0 1008.4 2.8
09/02:35am 23.4 26.8 23.4 100 0.0 SE 11 20 6 11 1010.1 1008.5 2.8
09/02:34am 23.4 26.8 23.4 100 0.0 SE 11 20 6 11 1010.1 1008.5 2.8
09/02:30am 23.3 27.0 23.3 100 0.0 SSE 9 19 5 10 1010.0 1008.4 2.8
09/02:11am 23.8 28.2 23.8 100 0.0 SE 7 19 4 10 1010.2 1008.6 2.6
09/02:00am 24.0 28.5 24.0 100 0.0 SE 7 11 4 6 1010.2 1008.6 2.6
09/01:30am 23.8 27.8 23.8 100 0.0 SE 9 13 5 7 1010.7 1009.1 2.6
09/01:17am 23.8 27.8 23.8 100 0.0 SSE 9 20 5 11 1010.8 1009.2 2.6
09/01:00am 24.0 27.4 24.0 100 0.0 SE 13 28 7 15 1010.7 1009.1 2.6
09/12:56am 23.9 27.2 23.9 100 0.0 SE 13 28 7 15 1010.9 1009.3 2.4
09/12:30am 23.8 27.8 23.8 100 0.0 ENE 9 24 5 13 1011.0 1009.4 2.4
09/12:00am 23.6 27.5 23.6 100 0.0 SSE 9 17 5 9 1011.5 1010.0 2.4
 
Date/Time
WST
Temp
°C
App
Temp
°C
Dew
Point
°C
Rel
Hum
%
Delta-T
°C
Wind Press
QNH
hPa
Press
MSL
hPa
Rain since
9am
mm
Dir  Spd
km/h
Gust
km/h
Spd
kts
Gust
kts
08/11:58pm 23.5 27.7 23.5 100 0.0 SSE 7 17 4 9 1011.5 1010.0 2.4
08/11:30pm 23.8 27.8 23.8 100 0.0 SE 9 13 5 7 1011.9 1010.3 2.2
08/11:00pm 23.8 27.1 23.8 100 0.0 SE 13 20 7 11 1011.9 1010.3 2.2
08/10:30pm 23.6 27.1 23.6 100 0.0 SE 11 19 6 10 1011.6 1010.1 2.2
08/10:22pm 23.7 26.9 23.7 100 0.0 SE 13 19 7 10 1011.6 1010.1 2.2
08/10:01pm 23.8 27.1 23.8 100 0.0 SE 13 19 7 10 1011.5 1010.0 2.0
08/10:00pm 23.8 27.1 23.8 100 0.0 SE 13 19 7 10 1011.5 1010.0 2.0
08/09:30pm 23.6 26.4 23.6 100 0.0 SE 15 26 8 14 1011.1 1009.5 2.0
08/09:20pm 23.4 25.7 23.4 100 0.0 SE 17 32 9 17 1010.9 1009.3 2.0
08/09:00pm 23.7 25.8 23.7 100 0.0 SE 19 28 10 15 1010.5 1008.9 2.0
08/08:53pm 23.7 26.1 23.7 100 0.0 SE 17 32 9 17 1010.4 1008.8 1.8
08/08:30pm 23.6 26.0 23.6 100 0.0 SE 17 32 9 17 1010.1 1008.5 1.8
08/08:00pm 23.7 26.1 23.7 100 0.0 SE 17 28 9 15 1009.7 1008.1 1.8
08/07:51pm 23.5 26.2 23.5 100 0.0 SE 15 26 8 14 1009.7 1008.1 1.8
08/07:39pm 23.4 25.1 23.4 100 0.0 SE 20 35 11 19 1009.6 1008.0 1.6
08/07:30pm 23.5 25.8 23.5 100 0.0 SSE 17 30 9 16 1009.5 1007.9 1.6
08/07:29pm 23.4 25.7 23.4 100 0.0 SSE 17 30 9 16 1009.5 1007.9 1.6
08/07:22pm 23.3 25.5 23.3 100 0.0 SSE 17 28 9 15 1009.5 1007.9 1.6
08/07:03pm 22.9 25.6 22.9 100 0.0 SSE 13 22 7 12 1009.2 1007.6 1.6
08/07:00pm 22.9 25.6 22.9 100 0.0 SSE 13 22 7 12 1009.2 1007.6 1.6
08/06:38pm 22.8 25.5 22.8 100 0.0 SSE 13 20 7 11 1009.0 1007.4 1.6
08/06:30pm 22.8 25.5 22.8 100 0.0 SSE 13 20 7 11 1009.0 1007.4 1.6
08/06:18pm 22.8 25.5 22.8 100 0.0 SSE 13 22 7 12 1009.1 1007.5 1.4
08/06:00pm 22.5 25.8 22.5 100 0.0 S 9 17 5 9 1009.1 1007.5 1.4
08/05:58pm 22.4 25.6 22.4 100 0.0 S 9 17 5 9 1009.2 1007.6 1.4
08/05:54pm 22.3 25.1 22.3 100 0.0 S 11 17 6 9 1009.2 1007.6 1.4
08/05:30pm 21.9 25.4 21.9 100 0.0 SW 6 9 3 5 1009.4 1007.8 1.4
08/05:00pm 21.6 24.4 21.6 100 0.0 WNW 9 11 5 6 1009.7 1008.1 1.2
08/04:48pm 21.5 24.3 21.5 100 0.0 WNW 9 15 5 8 1009.9 1008.3 1.2
08/04:30pm 21.4 24.1 21.4 100 0.0 WNW 9 15 5 8 1010.2 1008.6 1.2
08/04:29pm 21.4 24.1 21.4 100 0.0 WNW 9 15 5 8 1010.3 1008.7 1.2
08/04:26pm 21.3 24.0 21.3 100 0.0 WNW 9 15 5 8 1010.3 1008.7 1.2
08/04:13pm 21.2 23.4 21.2 100 0.0 WNW 11 17 6 9 1010.4 1008.8 1.2
08/04:00pm 21.1 22.9 21.1 100 0.0 WNW 13 19 7 10 1010.5 1008.9 1.0
08/03:41pm 21.5 24.3 21.5 100 0.0 NNE 9 22 5 12 1010.9 1009.3 1.0
08/03:30pm 22.7 26.1 22.7 100 0.0 NNE 9 13 5 7 1010.8 1009.2 1.0
08/03:00pm 22.8 25.9 22.8 100 0.0 SSE 11 15 6 8 1010.8 1009.2 1.0
08/02:30pm 23.0 26.9 23.0 100 0.0 WSW 7 13 4 7 1010.9 1009.3 0.8
08/02:00pm 23.2 26.9 23.2 100 0.0 WSW 9 19 5 10 1011.0 1009.4 0.8
08/01:55pm 23.2 26.1 23.2 100 0.0 W 13 20 7 11 1011.0 1009.4 0.8
08/01:49pm 23.2 26.5 23.2 100 0.0 WSW 11 20 6 11 1011.0 1009.4 0.6
08/01:30pm 23.3 27.0 23.3 100 0.0 ESE 9 15 5 8 1011.2 1009.6 0.6
08/01:11pm 23.1 26.3 23.1 100 0.0 SW 11 20 6 11 1011.2 1009.6 0.6
08/01:00pm 23.2 26.9 23.2 100 0.0 S 9 15 5 8 1011.4 1009.8 0.6
08/12:43pm 23.2 27.3 23.2 100 0.0 ESE 7 13 4 7 1011.6 1010.1 0.4
08/12:30pm 23.0 26.9 23.0 100 0.0 SE 7 15 4 8 1011.7 1010.2 0.4
08/12:07pm 23.1 26.3 23.1 100 0.0 E 11 26 6 14 1012.0 1010.4 0.4
08/12:04pm 23.6 28.1 23.6 100 0.0 ESE 6 22 3 12 1012.0 1010.4 0.4
08/12:00pm 23.6 28.5 23.6 100 0.0 SE 4 7 2 4 1011.9 1010.3 0.4
08/11:58am 23.7 28.2 23.7 100 0.0 SE 6 7 3 4 1011.9 1010.3 0.4
08/11:35am 23.7 26.9 23.7 100 0.0 SE 13 20 7 11 1012.1 1010.5 0.2
08/11:30am 24.0 27.8 24.0 100 0.0 SSE 11 20 6 11 1012.1 1010.5 0.2
08/11:00am 24.7 29.3 24.7 100 0.0 SE 9 15 5 8 1012.3 1010.7 0.2
08/10:30am 24.3 27.9 24.3 100 0.0 SE 13 20 7 11 1012.4 1010.8 0.0
08/10:00am 23.7 26.5 23.7 100 0.0 SE 15 24 8 13 1012.1 1010.5 5.4
08/09:54am 23.9 26.8 23.9 100 0.0 SE 15 24 8 13 1012.0 1010.4 5.4
08/09:35am 24.3 27.1 24.3 100 0.0 SE 17 30 9 16 1011.9 1010.3 5.2
08/09:30am 24.4 28.0 24.4 100 0.0 SSE 13 30 7 16 1011.7 1010.2 5.2
08/09:00am 24.5 28.2 24.5 100 0.0 SE 13 24 7 13 1011.9 1010.3 5.2
08/08:30am 24.5 28.6 24.5 100 0.0 SSE 11 22 6 12 1011.5 1010.0 5.2
08/08:00am 24.3 27.9 24.3 100 0.0 SSE 13 22 7 12 1011.1 1009.5 5.0
08/07:30am 24.1 27.9 24.1 100 0.0 SSE 11 20 6 11 1011.1 1009.5 5.0
08/07:00am 23.8 27.4 23.8 100 0.0 SSE 11 17 6 9 1010.9 1009.3 4.8
08/06:30am 23.8 27.8 23.8 100 0.0 SSE 9 19 5 10 1010.7 1009.1 4.8
08/06:00am 23.7 27.3 23.7 100 0.0 SSE 11 17 6 9 1010.2 1008.6 4.6
08/05:33am 23.8 27.8 23.8 100 0.0 SSE 9 15 5 8 1009.9 1008.3 4.6
08/05:30am 23.9 28.0 23.9 100 0.0 SSE 9 15 5 8 1009.9 1008.3 4.6
08/05:26am 23.8 27.8 23.8 100 0.0 S 9 15 5 8 1009.9 1008.3 4.6
08/05:24am 23.8 27.8 23.8 100 0.0 S 9 15 5 8 1009.9 1008.3 4.6
08/05:10am 23.7 26.9 23.7 100 0.0 SSE 13 22 7 12 1009.8 1008.2 4.4
08/05:06am 23.9 27.6 23.9 100 0.0 SE 11 20 6 11 1009.8 1008.2 4.4
08/05:00am 24.2 28.5 24.2 100 0.0 SE 9 17 5 9 1009.7 1008.1 4.4
08/04:30am 24.1 28.3 24.1 100 0.0 SSE 9 17 5 9 1009.7 1008.1 4.4
08/04:00am 24.2 28.1 24.2 100 0.0 SSE 11 19 6 10 1009.7 1008.1 4.2
08/03:30am 23.9 27.2 23.9 100 0.0 SSE 13 20 7 11 1009.9 1008.3 4.2
08/03:00am 24.0 27.8 24.0 100 0.0 SSE 11 19 6 10 1010.0 1008.4 4.2
08/02:30am 23.9 27.6 23.9 100 0.0 SSE 11 17 6 9 1010.1 1008.5 4.0
08/02:00am 24.1 27.9 24.1 100 0.0 SSE 11 20 6 11 1010.5 1008.9 4.0
08/01:30am 24.1 27.9 24.1 100 0.0 SSE 11 20 6 11 1010.7 1009.1 3.8
08/01:14am 24.0 28.1 24.0 100 0.0 SSE 9 20 5 11 1010.9 1009.3 3.8
08/01:11am 24.0 27.8 24.0 100 0.0 SSE 11 20 6 11 1010.9 1009.3 3.8
08/01:00am 24.0 28.1 24.0 100 0.0 SSE 9 15 5 8 1011.1 1009.5 3.8
08/12:30am 24.3 28.2 24.3 100 0.0 SE 11 17 6 9 1011.6 1010.1 3.6
08/12:00am 24.2 28.5 24.2 100 0.0 SE 9 17 5 9 1012.0 1010.4 3.6
 
Date/Time
WST
Temp
°C
App
Temp
°C
Dew
Point
°C
Rel
Hum
%
Delta-T
°C
Wind Press
QNH
hPa
Press
MSL
hPa
Rain since
9am
mm
Dir  Spd
km/h
Gust
km/h
Spd
kts
Gust
kts
07/11:30pm 24.2 28.5 24.2 100 0.0 SE 9 17 5 9 1011.7 1010.2 3.4
07/11:00pm 24.0 28.1 24.0 100 0.0 SE 9 15 5 8 1011.6 1010.1 3.4
07/10:30pm 24.1 28.3 24.1 100 0.0 SE 9 15 5 8 1011.4 1009.8 3.2
07/10:00pm 24.0 28.1 24.0 100 0.0 SE 9 15 5 8 1011.3 1009.7 3.2
07/09:30pm 23.9 28.0 23.9 100 0.0 SE 9 19 5 10 1011.3 1009.7 3.0
07/09:00pm 24.0 28.1 24.0 100 0.0 SE 9 17 5 9 1011.0 1009.4 3.0
07/08:37pm 24.1 27.9 24.1 100 0.0 SE 11 17 6 9 1010.8 1009.2 2.8
07/08:30pm 24.1 27.9 24.1 100 0.0 SE 11 19 6 10 1010.7 1009.1 2.8
07/08:20pm 24.0 27.8 24.0 100 0.0 SE 11 17 6 9 1010.6 1009.0 2.8
07/08:00pm 24.0 28.5 24.0 100 0.0 SE 7 13 4 7 1010.6 1009.0 2.8
07/07:30pm 24.1 27.9 24.1 100 0.0 SE 11 17 6 9 1010.3 1008.7 2.6
07/07:00pm 24.1 27.9 24.1 100 0.0 SE 11 17 6 9 1010.2 1008.6 2.6
07/06:30pm 24.6 28.3 24.6 100 0.0 SE 13 19 7 10 1009.9 1008.3 2.4
07/06:00pm 24.7 28.5 24.7 100 0.0 SE 13 19 7 10 1009.6 1008.0 2.4
07/05:30pm 24.6 28.7 24.6 100 0.0 SE 11 19 6 10 1009.3 1007.7 2.2
07/05:15pm 24.4 28.4 24.4 100 0.0 SE 11 17 6 9 1009.2 1007.6 2.2
07/05:00pm 24.1 27.8 23.9 99 0.1 SE 11 19 6 10 1009.1 1007.5 2.0
07/04:54pm 24.5 28.8 24.3 99 0.1 SE 9 19 5 10 1009.2 1007.6 2.0
07/04:30pm 25.2 29.0 24.7 97 0.3 SE 13 20 7 11 1009.2 1007.6 2.0
07/04:00pm 25.4 29.1 25.1 98 0.2 ESE 15 22 8 12 1009.1 1007.5 1.8
07/03:35pm 25.8 29.7 25.5 98 0.2 SE 15 20 8 11 1009.3 1007.7 1.6

Other formats

Comma delimited format used in spreadsheet applications
http://www.bom.gov.au/fwo/IDW60801/IDW60801.96995.axf

JavaScript Object Notation format (JSON) in row-major order
http://www.bom.gov.au/fwo/IDW60801/IDW60801.96995.json

Data quality

Most of these data are generated automatically and are frequently updated. Quality checks on data are not normally performed. It is possible for incorrect values to appear. Refer to information at About Latest Weather Observations and please check the disclaimer before using these data.